Time;durP1;ratioP1;P1;durP2;ratioP2;P2;SDS_P1;SDS_P2;PMS_P1;PMS_P2;Temp;Humidity;BMP_temperature;BMP_pressure;BME280_temperature;BME280_humidity;BME280_pressure;Samples;Min_cycle;Max_cycle;Signal;HPM_P1;HPM_P2
2022/01/01 00:02:23;;;;;;;7.88;5.40;;;3.80;84.80;;;2.53;80.33;96461.97;4010696;34;20580;-88
2022/01/01 00:04:50;;;;;;;8.25;5.30;;;3.90;85.00;;;2.53;80.36;96461.13;4010401;34;20033;-88
2022/01/01 00:07:16;;;;;;;8.25;5.55;;;3.80;84.80;;;2.53;80.61;96466.53;3991326;34;20305;-88
2022/01/01 00:09:43;;;;;;;8.10;5.10;;;3.80;84.70;;;2.51;80.72;96463.25;3993162;34;20280;-88
2022/01/01 00:12:11;;;;;;;8.65;5.88;;;3.90;85.00;;;2.53;80.56;96472.78;3972807;34;20031;-88
2022/01/01 00:14:38;;;;;;;9.60;6.07;;;3.90;84.80;;;2.52;80.58;96471.13;3994994;34;20236;-89
2022/01/01 00:17:05;;;;;;;7.80;5.13;;;3.90;85.00;;;2.53;80.53;96478.19;4020248;34;20282;-88
2022/01/01 00:19:31;;;;;;;8.10;5.70;;;3.90;85.00;;;2.53;80.51;96467.38;3995612;34;20097;-88
2022/01/01 00:22:01;;;;;;;9.75;5.57;;;3.80;84.80;;;2.53;80.43;96472.78;3998065;34;20010;-88
2022/01/01 00:24:28;;;;;;;9.30;5.63;;;3.80;84.90;;;2.53;80.45;96472.78;3949678;35;20009;-88
2022/01/01 00:26:54;;;;;;;7.68;5.03;;;3.90;84.90;;;2.53;80.66;96456.56;3949565;35;20026;-88
2022/01/01 00:29:21;;;;;;;8.55;5.53;;;3.90;84.80;;;2.52;80.38;96457.59;3970002;34;20314;-88
2022/01/01 00:31:47;;;;;;;9.95;5.53;;;3.90;84.80;;;2.54;80.27;96462.78;3995277;34;20333;-88
2022/01/01 00:34:13;;;;;;;8.57;5.47;;;3.80;84.80;;;2.56;80.65;96455.31;4013556;34;20088;-89
2022/01/01 00:36:40;;;;;;;8.35;5.50;;;3.90;85.00;;;2.54;80.75;96446.56;3992803;34;20327;-89
2022/01/01 00:39:06;;;;;;;8.70;5.28;;;3.90;85.00;;;2.54;80.46;96446.56;3971470;34;20307;-88
2022/01/01 00:41:32;;;;;;;7.93;5.22;;;3.90;84.90;;;2.53;80.76;96444.91;3993888;34;20016;-88
2022/01/01 00:43:59;;;;;;;6.72;5.35;;;3.90;85.00;;;2.54;80.21;96446.56;3959472;34;20370;-89
2022/01/01 00:46:25;;;;;;;11.00;6.20;;;3.80;85.00;;;2.53;80.50;96444.91;3969582;34;20271;-89
2022/01/01 00:48:53;;;;;;;8.65;5.72;;;3.90;84.90;;;2.55;80.44;96448.22;3981627;34;20017;-88
2022/01/01 00:51:20;;;;;;;8.32;5.47;;;3.90;84.90;;;2.54;80.69;96446.56;3995286;34;20310;-89
2022/01/01 00:53:49;;;;;;;10.90;6.82;;;3.80;84.90;;;2.55;80.44;96453.63;4006186;28;21715;-83
2022/01/01 00:56:15;;;;;;;8.85;5.40;;;3.80;84.90;;;2.54;80.52;96451.97;3976004;34;20302;-84
2022/01/01 00:58:41;;;;;;;8.40;5.68;;;3.90;85.00;;;2.55;80.38;96459.88;3993779;34;20001;-83
2022/01/01 01:01:08;;;;;;;11.05;7.00;;;3.80;84.90;;;2.55;80.45;96459.88;3994750;34;20377;-83
2022/01/01 01:03:34;;;;;;;9.65;6.25;;;3.90;85.20;;;2.56;80.48;96455.31;4015873;34;20287;-83
2022/01/01 01:06:01;;;;;;;9.85;5.90;;;3.90;85.00;;;2.55;80.75;96459.88;3991702;34;20280;-83
2022/01/01 01:08:28;;;;;;;9.98;6.45;;;3.90;84.90;;;2.55;80.54;96464.44;3971306;34;20613;-84
2022/01/01 01:10:56;;;;;;;9.43;6.63;;;3.90;85.00;;;2.57;80.96;96465.91;3972858;34;20216;-83
2022/01/01 01:13:26;;;;;;;13.32;7.70;;;3.90;84.90;;;2.55;80.66;96461.75;3953176;34;20634;-83
2022/01/01 01:15:53;;;;;;;9.02;6.03;;;3.80;84.90;;;2.56;80.95;96460.72;3973927;34;20384;-82
2022/01/01 01:18:19;;;;;;;9.15;5.72;;;3.90;85.00;;;2.56;80.39;96468.81;3951572;34;20282;-83
2022/01/01 01:20:45;;;;;;;10.85;6.82;;;3.90;84.90;;;2.56;80.64;96466.97;3993926;34;20013;-84
2022/01/01 01:23:11;;;;;;;11.23;6.35;;;3.90;85.00;;;2.57;80.70;96468.63;3993640;34;20013;-83
2022/01/01 01:25:40;;;;;;;11.13;6.25;;;3.90;85.00;;;2.58;80.38;96472.13;3971094;34;20323;-83
2022/01/01 01:28:11;;;;;;;11.10;7.43;;;3.90;84.90;;;2.58;80.77;96469.44;3974266;34;20080;-84
2022/01/01 01:30:38;;;;;;;12.85;7.75;;;3.90;84.90;;;2.57;80.88;96462.38;3953371;34;20037;-83
2022/01/01 01:33:06;;;;;;;10.40;6.80;;;3.90;85.00;;;2.58;80.43;96456.75;3973638;34;20302;-83
2022/01/01 01:35:33;;;;;;;13.65;7.72;;;3.90;84.90;;;2.57;80.65;96447.00;3993455;34;20394;-84
2022/01/01 01:37:59;;;;;;;11.27;7.35;;;3.90;85.00;;;2.57;80.31;96447.00;3973003;34;20017;-83
2022/01/01 01:40:26;;;;;;;10.70;7.18;;;3.90;84.90;;;2.58;80.89;96439.72;3994393;34;20341;-83
2022/01/01 01:42:52;;;;;;;11.75;7.25;;;3.90;84.90;;;2.58;80.36;96445.94;3998790;34;20045;-84
2022/01/01 01:45:21;;;;;;;11.20;7.22;;;3.90;85.00;;;2.58;80.34;96437.81;3975981;34;20400;-83
2022/01/01 01:47:49;;;;;;;11.77;7.85;;;3.90;84.90;;;2.57;80.61;96425.38;3997234;34;20017;-84
2022/01/01 01:50:18;;;;;;;13.88;9.27;;;3.90;84.90;;;2.59;80.53;96422.44;3996561;34;20352;-83
2022/01/01 01:52:55;;;;;;;13.02;7.93;;;3.90;84.90;;;2.59;80.30;96422.44;3999335;34;20334;-83
2022/01/01 01:55:21;;;;;;;10.90;7.43;;;3.90;84.80;;;2.59;80.53;96425.16;4003909;34;20008;-83
2022/01/01 01:57:48;;;;;;;12.02;7.55;;;3.90;84.90;;;2.58;80.74;96420.78;3998197;34;20304;-83
2022/01/01 02:03:03;;;;;;;12.88;8.43;;;3.90;84.90;;;2.60;80.73;96421.41;4017732;34;20286;-83
2022/01/01 02:05:33;;;;;;;11.88;7.72;;;3.90;84.80;;;2.60;80.80;96429.50;4014954;34;20225;-84
2022/01/01 02:07:59;;;;;;;11.85;7.70;;;3.90;84.90;;;2.60;80.80;96424.09;4016823;34;20033;-83
2022/01/01 02:10:25;;;;;;;10.35;7.18;;;3.90;84.90;;;2.60;80.91;96410.59;4017749;34;20068;-84
2022/01/01 02:12:54;;;;;;;12.25;7.88;;;3.90;85.00;;;2.62;80.83;96405.81;4002212;34;20309;-83
2022/01/01 02:18:05;;;;;;;13.10;7.68;;;3.90;84.90;;;2.61;80.73;96399.56;4037643;34;20057;-83
2022/01/01 02:20:31;;;;;;;9.77;6.75;;;3.90;85.00;;;2.63;80.59;96406.63;4037449;34;20220;-83
2022/01/01 02:23:00;;;;;;;11.70;7.32;;;3.90;85.00;;;2.62;80.59;96408.50;3951500;34;20299;-84
2022/01/01 02:25:28;;;;;;;13.48;7.93;;;3.90;85.00;;;2.62;80.57;96400.41;4015409;34;20654;-84
2022/01/01 02:27:54;;;;;;;12.07;8.23;;;3.90;84.80;;;2.61;80.48;96394.16;4014118;34;20009;-83
2022/01/01 02:30:21;;;;;;;11.25;7.13;;;3.90;84.80;;;2.61;80.62;96393.34;3992563;34;20352;-82
2022/01/01 02:32:47;;;;;;;12.20;7.88;;;3.90;84.80;;;2.61;80.70;96399.56;3992376;34;20319;-84
2022/01/01 02:35:16;;;;;;;10.68;8.07;;;4.00;84.90;;;2.62;80.83;96395.00;3990242;34;20279;-83
2022/01/01 02:37:43;;;;;;;11.50;7.82;;;3.90;84.90;;;2.63;80.53;96385.00;4012129;34;20289;-84
2022/01/01 02:40:12;;;;;;;9.90;6.70;;;4.00;84.80;;;2.62;80.56;96378.78;4011667;34;20256;-84
2022/01/01 02:42:39;;;;;;;11.27;7.72;;;4.00;84.90;;;2.63;80.47;96374.19;4011918;34;20301;-84
2022/01/01 02:45:08;;;;;;;9.90;6.53;;;3.90;84.90;;;2.64;80.75;96370.44;4032934;34;20005;-84
2022/01/01 02:47:35;;;;;;;9.02;6.47;;;4.00;85.00;;;2.63;80.43;96363.38;3990496;34;20009;-84
2022/01/01 02:50:02;;;;;;;9.70;6.50;;;4.00;84.90;;;2.64;80.82;96359.63;3991925;34;20216;-84
2022/01/01 02:52:28;;;;;;;9.73;6.40;;;4.00;85.00;;;2.63;81.02;96360.69;3985135;34;20323;-84
2022/01/01 02:54:54;;;;;;;9.68;6.70;;;4.00;85.00;;;2.63;80.88;96360.69;4017090;34;20096;-84
2022/01/01 02:57:21;;;;;;;9.98;6.70;;;3.90;85.00;;;2.63;80.46;96363.38;4050800;34;20294;-84
2022/01/01 02:59:48;;;;;;;10.05;6.82;;;3.90;84.90;;;2.63;80.68;96358.81;3990755;34;19985;-84
2022/01/01 03:02:15;;;;;;;12.15;7.22;;;3.90;85.00;;;2.65;80.95;96361.28;4051411;34;20345;-84
2022/01/01 03:04:41;;;;;;;10.80;6.70;;;3.90;85.00;;;2.66;80.68;96362.97;4002064;34;20012;-84
2022/01/01 03:07:07;;;;;;;11.52;7.03;;;4.00;85.00;;;2.64;80.78;96355.06;4015820;34;20044;-84
2022/01/01 03:09:36;;;;;;;11.45;7.35;;;3.90;84.80;;;2.65;80.79;96351.28;4007438;34;20348;-84
2022/01/01 03:12:13;;;;;;;9.73;6.65;;;4.00;85.10;;;2.65;80.57;96351.28;4051398;34;20394;-84
2022/01/01 03:14:39;;;;;;;10.73;6.90;;;4.00;85.00;;;2.64;80.64;96344.25;4002053;34;20012;-84
2022/01/01 03:17:07;;;;;;;13.48;6.82;;;3.90;85.00;;;2.66;80.72;96342.16;3994828;34;20338;-84
2022/01/01 03:19:35;;;;;;;13.27;7.38;;;4.00;85.10;;;2.66;80.59;96339.44;4015424;34;20006;-84
2022/01/01 03:22:02;;;;;;;10.45;6.63;;;4.00;84.90;;;2.65;80.44;96334.28;3995305;34;20085;-84
2022/01/01 03:24:28;;;;;;;8.70;6.18;;;3.90;84.80;;;2.66;80.98;96333.22;4014437;34;20017;-84
2022/01/01 03:26:55;;;;;;;13.63;8.73;;;4.00;84.90;;;2.64;80.68;96325.34;4015379;34;20328;-84
2022/01/01 03:29:21;;;;;;;10.45;6.93;;;4.00;85.00;;;2.66;80.58;96320.53;4036555;34;20076;-84
2022/01/01 03:31:48;;;;;;;12.15;8.13;;;4.00;85.00;;;2.65;80.49;96320.75;3993861;34;20354;-84
2022/01/01 03:34:14;;;;;;;11.60;7.13;;;4.00;84.90;;;2.66;80.85;96328.63;4014941;34;20291;-84
2022/01/01 03:36:40;;;;;;;11.40;7.53;;;4.00;84.90;;;2.65;80.67;96310.75;4015347;34;20331;-84
2022/01/01 03:39:07;;;;;;;10.45;7.15;;;4.00;84.80;;;2.65;80.52;96310.75;4036266;34;20300;-84
2022/01/01 03:41:33;;;;;;;11.23;7.38;;;4.00;84.80;;;2.67;80.82;96322.19;4035180;34;20005;-84
2022/01/01 03:43:59;;;;;;;12.27;8.05;;;4.00;84.80;;;2.67;80.28;96318.66;4014555;34;20013;-84
2022/01/01 03:46:26;;;;;;;11.55;7.65;;;4.00;84.80;;;2.66;80.43;96315.13;3993403;34;20312;-84
2022/01/01 03:48:52;;;;;;;11.40;7.50;;;4.00;85.00;;;2.67;80.59;96322.19;3993541;34;20434;-84
2022/01/01 03:51:18;;;;;;;12.02;7.85;;;4.00;85.00;;;2.67;80.84;96324.88;4016107;34;20020;-84
2022/01/01 03:53:44;;;;;;;13.70;8.32;;;4.00;85.00;;;2.68;80.52;96306.81;3970735;34;20033;-84
2022/01/01 03:56:11;;;;;;;13.02;8.38;;;4.00;84.80;;;2.66;80.24;96293.50;3970945;34;20307;-84
2022/01/01 03:58:38;;;;;;;12.65;8.65;;;4.00;85.00;;;2.67;80.46;96289.75;3972839;34;20016;-84
2022/01/01 04:01:04;;;;;;;14.48;9.05;;;4.00;84.90;;;2.67;80.67;96294.34;3972496;34;20016;-84
2022/01/01 04:03:30;;;;;;;13.80;8.13;;;4.00;84.90;;;2.67;80.65;96295.16;3972042;34;20373;-84
2022/01/01 04:05:57;;;;;;;13.85;8.95;;;4.00;84.90;;;2.68;80.51;96301.41;3993441;34;20295;-84
2022/01/01 04:08:23;;;;;;;13.95;9.25;;;4.00;84.90;;;2.67;80.40;96305.97;3950554;34;20007;-84
2022/01/01 04:10:49;;;;;;;14.27;9.20;;;4.00;84.90;;;2.68;80.61;96299.50;3992965;34;20013;-84
2022/01/01 04:13:16;;;;;;;15.85;9.38;;;4.00;85.00;;;2.68;80.99;96302.22;3993482;34;20296;-84
2022/01/01 04:15:42;;;;;;;14.60;9.07;;;4.00;85.00;;;2.69;80.73;96320.09;4012028;34;20280;-84
2022/01/01 04:18:12;;;;;;;13.05;8.18;;;4.00;85.00;;;2.69;80.63;96314.69;3970672;34;20388;-84
2022/01/01 04:20:41;;;;;;;14.88;9.25;;;4.00;84.90;;;2.68;80.76;96313.03;3972460;34;20080;-84
2022/01/01 04:23:09;;;;;;;14.88;8.85;;;4.00;84.80;;;2.68;80.58;96309.50;3992383;34;20530;-84
2022/01/01 04:25:36;;;;;;;13.50;8.27;;;4.00;84.90;;;2.68;80.26;96318.44;3991143;34;20334;-84
2022/01/01 04:28:03;;;;;;;12.40;8.80;;;4.00;84.80;;;2.68;80.60;96313.03;3949514;34;20346;-84
2022/01/01 04:30:30;;;;;;;15.05;8.82;;;4.00;84.80;;;2.68;80.48;96313.03;3951353;34;20368;-84
2022/01/01 04:32:57;;;;;;;14.02;9.45;;;4.00;84.80;;;2.70;80.28;96312.84;3984551;34;20272;-84
2022/01/01 04:35:24;;;;;;;13.70;9.05;;;4.00;84.90;;;2.69;80.40;96312.00;3992703;34;20045;-84
2022/01/01 04:37:50;;;;;;;13.80;8.77;;;4.00;84.90;;;2.70;80.80;96316.34;3972084;34;20009;-84
2022/01/01 04:40:16;;;;;;;12.93;8.75;;;4.00;84.90;;;2.70;80.38;96310.13;3969912;34;20394;-84
2022/01/01 04:42:43;;;;;;;14.35;9.38;;;4.00;84.80;;;2.70;80.38;96321.75;3973344;34;20385;-84
2022/01/01 04:45:11;;;;;;;14.80;9.05;;;4.00;84.80;;;2.70;80.94;96315.53;3971616;34;20280;-84
2022/01/01 04:47:37;;;;;;;14.13;8.95;;;4.00;84.90;;;2.71;80.66;96318.00;3990124;34;20313;-84
2022/01/01 04:50:04;;;;;;;13.27;8.38;;;4.00;84.90;;;2.71;80.90;96328.00;3955043;34;20011;-84
2022/01/01 04:52:31;;;;;;;14.88;8.90;;;4.00;84.90;;;2.70;80.44;96327.16;3954047;34;20285;-84
2022/01/01 04:54:58;;;;;;;11.23;8.63;;;4.00;84.80;;;2.71;80.70;96323.41;3977554;34;20021;-84
2022/01/01 04:57:29;;;;;;;15.65;9.10;;;4.00;84.90;;;2.71;80.92;96323.41;3953393;34;20002;-84
2022/01/01 04:59:57;;;;;;;13.75;9.18;;;4.00;84.80;;;2.71;80.40;96318.00;3950237;34;20500;-84
2022/01/01 05:02:26;;;;;;;14.13;9.07;;;4.00;84.80;;;2.70;80.51;96321.75;3970714;34;20302;-84
2022/01/01 05:04:53;;;;;;;12.32;8.45;;;4.00;84.80;;;2.70;80.58;96319.06;3971974;34;20290;-84
2022/01/01 05:07:21;;;;;;;13.25;9.05;;;4.00;84.80;;;2.71;80.89;96314.50;3971857;34;20690;-84
2022/01/01 05:09:47;;;;;;;14.93;9.52;;;4.10;84.90;;;2.72;80.60;96319.66;3994484;34;20244;-84
2022/01/01 05:12:13;;;;;;;15.88;9.25;;;4.10;85.00;;;2.71;80.19;96312.59;3972337;34;20665;-84
2022/01/01 05:14:40;;;;;;;13.85;9.20;;;4.00;84.80;;;2.73;80.63;96307.81;4012595;34;20290;-84
2022/01/01 05:17:06;;;;;;;14.50;9.38;;;4.10;85.00;;;2.72;80.97;96318.81;3971422;34;20279;-84
2022/01/01 05:19:32;;;;;;;14.20;9.48;;;4.10;84.90;;;2.73;80.26;96315.06;3950436;34;20013;-84
2022/01/01 05:21:59;;;;;;;15.98;9.20;;;4.10;84.80;;;2.74;80.86;96328.41;3992228;34;20297;-84
2022/01/01 05:24:25;;;;;;;14.65;8.77;;;4.10;84.80;;;2.71;80.83;96315.31;3949290;34;20325;-84
2022/01/01 05:26:51;;;;;;;13.98;8.90;;;4.10;84.90;;;2.74;80.53;96324.84;3992346;34;20347;-83
2022/01/01 05:29:17;;;;;;;12.68;8.02;;;4.10;84.90;;;2.74;80.45;96331.09;3991921;34;20020;-84
2022/01/01 05:31:44;;;;;;;12.77;8.43;;;4.10;84.80;;;2.73;80.50;96342.97;3971759;34;20285;-83
2022/01/01 05:34:10;;;;;;;14.05;8.45;;;4.10;85.00;;;2.75;80.51;96346.28;3969217;34;19989;-84
2022/01/01 05:36:36;;;;;;;13.95;8.73;;;4.10;85.00;;;2.73;80.31;96337.53;3968990;34;20009;-84
2022/01/01 05:39:03;;;;;;;12.25;7.97;;;4.10;84.80;;;2.74;80.50;96344.63;3968217;34;20290;-84
2022/01/01 05:41:29;;;;;;;12.95;8.93;;;4.10;84.80;;;2.74;80.46;96354.59;3983434;34;20295;-84
2022/01/01 05:43:55;;;;;;;11.63;7.68;;;4.10;85.00;;;2.75;80.60;96346.28;3983403;34;20508;-84
2022/01/01 05:46:22;;;;;;;12.10;8.13;;;4.10;84.90;;;2.76;80.36;96350.63;3981298;34;20298;-84
2022/01/01 05:48:48;;;;;;;12.07;8.27;;;4.10;84.80;;;2.75;80.69;96357.09;3978773;34;20297;-84
2022/01/01 05:51:14;;;;;;;12.73;8.50;;;4.10;85.00;;;2.75;80.25;96357.09;3936390;34;20076;-84
2022/01/01 05:53:41;;;;;;;11.05;7.60;;;4.10;84.90;;;2.76;80.72;96355.19;3978394;34;20296;-84
2022/01/01 05:56:07;;;;;;;11.63;7.65;;;4.00;84.80;;;2.75;80.94;96351.69;3977982;34;20441;-84
2022/01/01 05:58:33;;;;;;;10.65;7.13;;;4.00;84.90;;;2.76;80.72;96358.75;3980597;34;20339;-84
2022/01/01 06:01:00;;;;;;;12.82;7.80;;;4.10;85.00;;;2.76;81.01;96372.25;3939394;34;20288;-85
2022/01/01 06:03:26;;;;;;;10.85;6.65;;;4.10;85.10;;;2.76;80.62;96361.44;3982000;34;20304;-84
2022/01/01 06:05:52;;;;;;;10.52;7.13;;;4.10;85.00;;;2.77;80.28;96356.84;4002428;34;20011;-84
2022/01/01 06:08:19;;;;;;;11.68;7.22;;;4.10;84.90;;;2.79;80.65;96359.34;4002927;34;20013;-84
2022/01/01 06:10:45;;;;;;;9.60;6.97;;;4.10;85.00;;;2.75;80.65;96357.09;3959128;34;20005;-84
2022/01/01 06:13:11;;;;;;;10.57;7.25;;;4.10;84.90;;;2.75;80.99;96357.09;3938173;34;20296;-84
2022/01/01 06:15:38;;;;;;;11.30;7.05;;;4.10;84.90;;;2.78;80.76;96371.19;3979791;34;20305;-84
2022/01/01 06:18:04;;;;;;;11.43;6.80;;;4.10;84.90;;;2.76;80.51;96374.13;3938812;34;19993;-84
2022/01/01 06:20:30;;;;;;;10.25;6.80;;;4.10;84.90;;;2.76;80.53;96369.56;3960222;34;20401;-84
2022/01/01 06:22:57;;;;;;;9.70;6.53;;;4.10;84.80;;;2.76;80.77;96374.97;3938781;34;20293;-84
2022/01/01 06:25:23;;;;;;;9.95;6.88;;;4.10;85.00;;;2.78;80.50;96380.16;3939191;34;20064;-84
2022/01/01 06:27:49;;;;;;;10.73;6.60;;;4.10;85.00;;;2.76;80.59;96374.97;3961933;34;20056;-85
2022/01/01 06:30:15;;;;;;;9.60;6.20;;;4.10;84.90;;;2.76;80.65;96385.78;3988328;34;20293;-85
2022/01/01 06:32:42;;;;;;;9.88;6.20;;;4.10;84.80;;;2.78;80.60;96390.13;3992833;34;20313;-85
2022/01/01 06:35:08;;;;;;;10.27;6.70;;;4.10;84.80;;;2.79;80.54;96380.97;3991870;34;20009;-85
2022/01/01 06:37:35;;;;;;;9.48;5.65;;;4.10;85.00;;;2.79;80.39;96389.91;3967222;34;20297;-85
2022/01/01 06:40:01;;;;;;;8.88;6.05;;;4.10;85.00;;;2.78;80.42;96392.81;3988929;34;20275;-84
2022/01/01 06:42:27;;;;;;;10.18;6.63;;;4.10;84.90;;;2.79;80.81;96389.06;4010253;34;20013;-85
2022/01/01 06:44:53;;;;;;;9.23;6.10;;;4.10;84.90;;;2.79;80.73;96394.47;3994670;34;20586;-85
2022/01/01 06:47:20;;;;;;;10.98;6.38;;;4.10;84.80;;;2.78;80.77;96393.66;3991661;34;20660;-85
2022/01/01 06:49:46;;;;;;;9.35;5.78;;;4.10;84.80;;;2.79;80.57;96395.31;4012321;34;19997;-85
2022/01/01 06:52:12;;;;;;;8.70;5.53;;;4.10;84.90;;;2.80;80.83;96390.72;3993728;34;20001;-85
2022/01/01 06:54:38;;;;;;;8.80;6.00;;;4.10;84.80;;;2.79;80.43;96406.13;3986710;34;20366;-86
2022/01/01 06:57:05;;;;;;;9.15;5.97;;;4.10;84.90;;;2.81;80.31;96408.63;3967952;34;20281;-86
2022/01/01 06:59:31;;;;;;;10.63;5.72;;;4.10;84.80;;;2.81;80.60;96408.63;3967682;34;20024;-86
2022/01/01 07:01:58;;;;;;;9.05;5.47;;;4.10;84.80;;;2.80;80.34;96398.84;3989417;34;20294;-86
2022/01/01 07:04:24;;;;;;;9.65;5.80;;;4.10;84.80;;;2.80;80.28;96412.38;3988615;34;20308;-86
2022/01/01 07:06:50;;;;;;;8.60;5.60;;;4.10;84.80;;;2.81;80.48;96416.72;3989281;34;20320;-85
2022/01/01 07:09:16;;;;;;;6.43;4.95;;;4.10;84.80;;;2.80;80.53;96415.91;3989214;34;20298;-86
2022/01/01 07:11:43;;;;;;;7.97;5.10;;;4.10;85.00;;;2.82;80.50;96415.69;3989012;34;20296;-86
2022/01/01 07:14:11;;;;;;;8.90;5.28;;;4.10;85.00;;;2.81;80.35;96420.28;3987729;34;20320;-86
2022/01/01 07:16:37;;;;;;;8.18;5.80;;;4.10;84.90;;;2.83;80.66;96420.03;4010749;34;20005;-86
2022/01/01 07:19:04;;;;;;;9.25;5.85;;;4.10;85.00;;;2.83;80.87;96422.75;3988861;34;20304;-86
2022/01/01 07:21:30;;;;;;;8.95;5.82;;;4.10;85.00;;;2.84;80.64;96416.31;4010498;34;20008;-86
2022/01/01 07:23:56;;;;;;;9.48;5.65;;;4.10;85.00;;;2.82;80.55;96413.81;4010333;34;20326;-85
2022/01/01 07:26:23;;;;;;;12.07;6.47;;;4.10;84.80;;;2.83;80.63;96411.94;4011188;34;20343;-86
2022/01/01 07:28:49;;;;;;;11.20;6.18;;;4.10;85.00;;;2.86;80.48;96416.91;4010423;34;20088;-86
2022/01/01 07:31:18;;;;;;;12.40;7.50;;;4.20;85.00;;;2.84;80.37;96416.31;3947564;34;20009;-85
2022/01/01 07:33:44;;;;;;;14.32;7.60;;;4.20;84.90;;;2.87;80.84;96421.28;3989583;34;20632;-85
2022/01/01 07:36:11;;;;;;;11.15;6.85;;;4.20;84.90;;;2.86;80.55;96422.31;3970033;34;20512;-86
2022/01/01 07:38:39;;;;;;;13.05;7.47;;;4.20;84.80;;;2.86;80.82;96412.31;3990891;34;20024;-85
2022/01/01 07:41:05;;;;;;;16.33;8.43;;;4.20;85.00;;;2.87;80.36;96435.63;3991938;34;20212;-85
2022/01/01 07:43:32;;;;;;;15.23;8.55;;;4.20;84.90;;;2.88;80.66;96420.25;3991609;34;20662;-86
2022/01/01 07:45:58;;;;;;;12.65;8.48;;;4.20;84.80;;;2.88;80.61;96420.25;3990425;34;20806;-86
2022/01/01 07:48:24;;;;;;;16.45;9.52;;;4.20;85.00;;;2.88;80.68;96421.06;4013016;34;20012;-86
2022/01/01 07:50:51;;;;;;;17.52;9.85;;;4.20;85.00;;;2.88;80.59;96423.75;4004025;34;20329;-86
2022/01/01 07:53:17;;;;;;;16.20;8.68;;;4.20;84.90;;;2.89;80.89;96419.19;3949555;34;20091;-86
2022/01/01 07:55:43;;;;;;;14.45;8.98;;;4.20;84.90;;;2.89;80.69;96424.59;3976001;34;20021;-86
2022/01/01 07:58:09;;;;;;;19.50;9.48;;;4.20;84.90;;;2.90;81.00;96426.25;3989494;34;20342;-85
2022/01/01 08:00:36;;;;;;;16.58;9.70;;;4.20;85.00;;;2.89;80.65;96413.78;4033098;34;20579;-85
2022/01/01 08:03:02;;;;;;;17.27;10.20;;;4.20;84.80;;;2.90;80.55;96418.16;4011436;34;20005;-86
2022/01/01 08:05:29;;;;;;;18.30;10.13;;;4.20;85.00;;;2.91;80.73;96419.78;3990391;34;20025;-85
2022/01/01 08:07:55;;;;;;;19.38;10.43;;;4.20;85.00;;;2.89;80.65;96420.00;4011767;34;20334;-84
2022/01/01 08:10:23;;;;;;;19.67;10.10;;;4.20;85.20;;;2.91;80.79;96425.19;4015670;34;20087;-84
2022/01/01 08:12:49;;;;;;;18.08;11.02;;;4.20;85.10;;;2.91;80.77;96422.50;3995862;34;20016;-84
2022/01/01 08:15:16;;;;;;;18.95;10.10;;;4.20;85.00;;;2.90;80.79;96429.78;3975181;34;20340;-84
2022/01/01 08:17:43;;;;;;;17.00;9.95;;;4.20;85.30;;;2.91;80.56;96431.44;3997058;34;20276;-84
2022/01/01 08:20:11;;;;;;;17.02;10.55;;;4.20;84.90;;;2.91;81.04;96436.00;3976520;34;20396;-84
2022/01/01 08:22:37;;;;;;;17.70;11.18;;;4.20;85.20;;;2.91;80.93;96433.31;3976299;34;20364;-83
2022/01/01 08:25:04;;;;;;;17.10;9.35;;;4.20;85.00;;;2.92;80.78;96437.66;3975310;34;20247;-84
2022/01/01 08:27:30;;;;;;;16.23;8.90;;;4.20;85.00;;;2.94;80.95;96446.41;3999179;34;20315;-84
2022/01/01 08:29:56;;;;;;;16.15;10.18;;;4.20;85.00;;;2.94;80.68;96441.00;3999701;34;20012;-83
2022/01/01 08:32:23;;;;;;;15.65;9.25;;;4.30;85.20;;;2.96;80.76;96435.38;3977330;34;20333;-83
2022/01/01 08:34:50;;;;;;;15.75;8.98;;;4.30;85.20;;;2.95;81.21;96437.25;4017279;34;20240;-83
2022/01/01 08:37:17;;;;;;;15.65;8.98;;;4.30;85.30;;;2.97;80.72;96440.56;3952011;34;20314;-84
2022/01/01 08:39:43;;;;;;;17.10;9.02;;;4.30;85.10;;;2.99;80.70;96448.44;3994937;34;20308;-85
2022/01/01 08:42:10;;;;;;;15.40;8.75;;;4.30;85.00;;;2.98;80.82;96453.06;4035365;34;20387;-85
2022/01/01 08:44:36;;;;;;;14.80;8.95;;;4.30;85.00;;;2.98;80.67;96446.78;3967554;34;20048;-84
2022/01/01 08:47:03;;;;;;;13.18;8.48;;;4.30;85.00;;;2.99;80.90;96448.44;3967547;34;20012;-85
2022/01/01 08:49:29;;;;;;;12.15;7.25;;;4.30;85.00;;;2.99;81.12;96448.44;3965925;34;20374;-84
2022/01/01 08:51:56;;;;;;;12.60;8.18;;;4.30;85.40;;;2.99;81.21;96451.16;4029685;34;20303;-84
2022/01/01 08:54:22;;;;;;;14.60;9.02;;;4.30;85.60;;;2.98;81.13;96449.50;3963911;34;20009;-84
2022/01/01 08:56:49;;;;;;;13.73;7.50;;;4.30;85.30;;;2.98;81.18;96452.19;3944612;34;20617;-84
2022/01/01 08:59:16;;;;;;;14.68;8.30;;;4.30;85.40;;;2.99;80.97;96472.78;3963361;34;20044;-84
2022/01/01 09:01:42;;;;;;;14.05;8.07;;;4.30;85.60;;;2.99;81.26;96470.09;3967013;34;20320;-84
2022/01/01 09:04:08;;;;;;;12.40;7.93;;;4.30;85.40;;;2.98;81.24;96458.47;3980718;34;20308;-85
2022/01/01 09:06:35;;;;;;;14.10;7.38;;;4.30;85.60;;;2.97;81.17;96467.63;4008442;34;20288;-84
2022/01/01 09:09:01;;;;;;;14.13;8.02;;;4.30;85.50;;;2.98;81.38;96463.88;3984065;34;19990;-84
2022/01/01 09:11:27;;;;;;;12.77;6.97;;;4.30;85.70;;;2.97;81.36;96466.78;4004839;34;20224;-84
2022/01/01 09:13:54;;;;;;;10.70;6.85;;;4.30;85.40;;;2.97;81.21;96473.03;3982611;34;20288;-84
2022/01/01 09:16:20;;;;;;;12.90;7.20;;;4.30;85.50;;;2.97;81.13;96466.78;4003978;34;20363;-85
2022/01/01 09:18:47;;;;;;;10.18;6.28;;;4.30;85.60;;;2.97;81.67;96464.91;4003890;34;20005;-85
2022/01/01 09:21:14;;;;;;;12.80;7.82;;;4.30;85.70;;;2.98;81.22;96452.19;3982736;34;20012;-83
2022/01/01 09:23:41;;;;;;;11.80;6.50;;;4.30;85.60;;;2.98;81.22;96463.03;3984052;34;20383;-85
2022/01/01 09:26:07;;;;;;;10.48;6.88;;;4.30;85.70;;;3.01;81.00;96474.25;4004853;34;20204;-85
2022/01/01 09:28:34;;;;;;;10.32;6.05;;;4.30;85.20;;;3.01;80.71;96476.97;4027224;34;20313;-84
2022/01/01 09:31:01;;;;;;;11.23;6.70;;;4.30;85.20;;;3.01;80.97;96473.41;4027450;34;20037;-85
2022/01/01 09:33:31;;;;;;;12.68;7.30;;;4.30;85.50;;;3.02;81.07;96475.91;4006137;34;20283;-84
2022/01/01 09:36:03;;;;;;;10.63;7.00;;;4.30;85.50;;;3.03;80.99;96469.44;4005991;34;20005;-84
2022/01/01 09:38:30;;;;;;;11.80;6.32;;;4.30;85.20;;;3.02;81.23;96459.69;4031406;34;20377;-85
2022/01/01 09:40:57;;;;;;;10.45;6.50;;;4.30;85.50;;;3.03;81.17;96461.31;4011752;34;20282;-84
2022/01/01 09:43:26;;;;;;;11.50;6.65;;;4.30;85.30;;;3.04;80.86;96460.28;3946709;34;20275;-84
2022/01/01 09:45:54;;;;;;;10.70;6.35;;;4.40;85.10;;;3.04;80.56;96457.56;4008231;34;20001;-85
2022/01/01 09:48:22;;;;;;;10.93;6.72;;;4.40;85.00;;;3.04;80.88;96454.06;3990770;34;20323;-85
2022/01/01 09:51:01;;;;;;;11.38;5.93;;;4.40;85.10;;;3.06;80.90;96462.78;3991139;34;20112;-83
2022/01/01 09:53:29;;;;;;;10.80;6.25;;;4.40;85.10;;;3.04;80.95;96457.56;4011620;34;20008;-85
2022/01/01 09:55:56;;;;;;;11.48;5.70;;;4.40;85.20;;;3.05;81.19;96453.81;3969240;34;20623;-85
2022/01/01 09:58:31;;;;;;;11.73;6.65;;;4.40;85.50;;;3.05;81.13;96453.81;3969285;34;20282;-84
2022/01/01 10:00:59;;;;;;;14.45;6.28;;;4.40;85.40;;;3.05;81.50;96453.00;3985283;34;20286;-85
2022/01/01 10:03:47;;;;;;;9.98;5.85;;;4.40;85.80;;;3.04;81.35;96452.16;3964818;34;20335;-85
2022/01/01 10:06:20;;;;;;;11.48;6.03;;;4.40;85.50;;;3.05;81.13;96453.81;3991152;34;20296;-85
2022/01/01 10:09:03;;;;;;;8.48;5.03;;;4.40;85.70;;;3.05;81.13;96456.53;3969695;34;20279;-84
2022/01/01 10:11:33;;;;;;;10.50;5.90;;;4.30;85.60;;;3.04;81.58;96454.88;3971041;34;20205;-85
2022/01/01 10:14:07;;;;;;;10.07;6.07;;;4.30;85.60;;;3.04;81.10;96454.88;4012989;34;20098;-85
2022/01/01 10:16:44;;;;;;;9.90;5.97;;;4.40;85.50;;;3.05;81.21;96451.13;3997558;34;20013;-84
2022/01/01 10:19:10;;;;;;;10.40;6.20;;;4.40;85.60;;;3.07;81.46;96453.63;3998115;34;20008;-84
2022/01/01 10:21:41;;;;;;;10.90;5.70;;;4.40;85.70;;;3.05;81.31;96459.25;3997909;34;20660;-84
2022/01/01 10:24:12;;;;;;;9.30;4.93;;;4.40;85.70;;;3.05;81.46;96448.41;3999049;34;20005;-85
2022/01/01 10:29:31;;;;;;;9.63;5.38;;;4.40;85.80;;;3.06;81.63;96452.78;3999022;34;20606;-85
2022/01/01 10:32:08;;;;;;;8.30;5.28;;;4.40;85.60;;;3.09;81.35;96453.41;3950591;34;20064;-84
2022/01/01 10:34:44;;;;;;;7.70;5.30;;;4.40;85.60;;;3.07;80.97;96457.16;3949803;34;20338;-85
2022/01/01 10:37:13;;;;;;;7.93;5.47;;;4.40;86.30;;;3.07;81.21;96459.84;3992003;34;20320;-85